sensor_id;sensor_type;location;lat;lon;timestamp;pressure;altitude;pressure_sealevel;temperature;humidity
8253;BME280;61313;48.396;10.008;2024-03-25T00:01:54;95484.25;;;6.13;64.83
8253;BME280;61313;48.396;10.008;2024-03-25T00:04:19;95492.13;;;6.11;65.15
8253;BME280;61313;48.396;10.008;2024-03-25T00:06:47;95488.03;;;6.06;65.39
8253;BME280;61313;48.396;10.008;2024-03-25T00:09:12;95484.31;;;6.11;65.15
8253;BME280;61313;48.396;10.008;2024-03-25T00:11:40;95486.50;;;6.22;65.03
8253;BME280;61313;48.396;10.008;2024-03-25T00:14:05;95490.78;;;6.23;65.11
8253;BME280;61313;48.396;10.008;2024-03-25T00:16:31;95488.88;;;6.06;65.41
8253;BME280;61313;48.396;10.008;2024-03-25T00:18:56;95489.78;;;6.26;64.71
8253;BME280;61313;48.396;10.008;2024-03-25T00:21:22;95496.97;;;6.21;64.91
8253;BME280;61313;48.396;10.008;2024-03-25T00:23:47;95496.84;;;6.24;65.28
8253;BME280;61313;48.396;10.008;2024-03-25T00:26:12;95496.53;;;6.31;64.66
8253;BME280;61313;48.396;10.008;2024-03-25T00:28:38;95489.75;;;6.27;64.94
8253;BME280;61313;48.396;10.008;2024-03-25T00:31:03;95489.94;;;6.23;65.08
8253;BME280;61313;48.396;10.008;2024-03-25T00:33:29;95492.91;;;6.13;65.51
8253;BME280;61313;48.396;10.008;2024-03-25T00:35:54;95489.34;;;6.16;65.18
8253;BME280;61313;48.396;10.008;2024-03-25T00:38:20;95488.34;;;5.98;66.02
8253;BME280;61313;48.396;10.008;2024-03-25T00:40:45;95488.63;;;6.12;65.38
8253;BME280;61313;48.396;10.008;2024-03-25T00:43:10;95488.88;;;6.06;65.71
8253;BME280;61313;48.396;10.008;2024-03-25T00:45:36;95485.88;;;6.15;65.29
8253;BME280;61313;48.396;10.008;2024-03-25T00:48:02;95492.25;;;6.08;65.54
8253;BME280;61313;48.396;10.008;2024-03-25T00:50:27;95489.47;;;6.13;65.36
8253;BME280;61313;48.396;10.008;2024-03-25T00:52:53;95497.94;;;6.18;65.46
8253;BME280;61313;48.396;10.008;2024-03-25T00:55:18;95480.22;;;6.06;65.96
8253;BME280;61313;48.396;10.008;2024-03-25T00:57:44;95488.88;;;6.06;65.42
8253;BME280;61313;48.396;10.008;2024-03-25T01:00:10;95482.16;;;6.21;65.24
8253;BME280;61313;48.396;10.008;2024-03-25T01:02:35;95488.25;;;6.00;65.59
8253;BME280;61313;48.396;10.008;2024-03-25T01:05:01;95477.13;;;5.96;66.02
8253;BME280;61313;48.396;10.008;2024-03-25T01:07:27;95482.63;;;6.10;65.62
8253;BME280;61313;48.396;10.008;2024-03-25T01:09:53;95484.25;;;6.13;64.99
8253;BME280;61313;48.396;10.008;2024-03-25T01:12:18;95473.75;;;5.94;65.72
8253;BME280;61313;48.396;10.008;2024-03-25T01:14:43;95476.56;;;5.88;65.91
8253;BME280;61313;48.396;10.008;2024-03-25T01:17:09;95480.72;;;5.92;65.98
8253;BME280;61313;48.396;10.008;2024-03-25T01:19:34;95479.34;;;5.83;66.27
8253;BME280;61313;48.396;10.008;2024-03-25T01:22:00;95482.13;;;5.79;66.17
8253;BME280;61313;48.396;10.008;2024-03-25T01:24:25;95480.38;;;5.79;66.04
8253;BME280;61313;48.396;10.008;2024-03-25T01:26:50;95475.97;;;5.81;66.23
8253;BME280;61313;48.396;10.008;2024-03-25T01:29:16;95470.94;;;5.99;65.39
8253;BME280;61313;48.396;10.008;2024-03-25T01:31:42;95467.44;;;5.78;65.98
8253;BME280;61313;48.396;10.008;2024-03-25T01:34:07;95459.63;;;5.78;66.23
8253;BME280;61313;48.396;10.008;2024-03-25T01:36:33;95470.44;;;5.89;66.25
8253;BME280;61313;48.396;10.008;2024-03-25T01:38:59;95463.91;;;5.79;66.52
8253;BME280;61313;48.396;10.008;2024-03-25T01:41:25;95469.91;;;5.81;66.64
8253;BME280;61313;48.396;10.008;2024-03-25T01:43:50;95466.75;;;5.72;67.08
8253;BME280;61313;48.396;10.008;2024-03-25T01:46:18;95453.94;;;5.68;67.40
8253;BME280;61313;48.396;10.008;2024-03-25T01:48:46;95452.66;;;5.56;66.97
8253;BME280;61313;48.396;10.008;2024-03-25T01:51:15;95454.44;;;5.56;67.35
8253;BME280;61313;48.396;10.008;2024-03-25T01:53:42;95464.00;;;5.55;67.50
8253;BME280;61313;48.396;10.008;2024-03-25T01:56:08;95458.00;;;5.53;67.62
8253;BME280;61313;48.396;10.008;2024-03-25T01:58:34;95451.56;;;5.62;67.16
8253;BME280;61313;48.396;10.008;2024-03-25T02:01:01;95451.09;;;5.74;66.52
8253;BME280;61313;48.396;10.008;2024-03-25T02:03:29;95451.75;;;5.57;67.45
8253;BME280;61313;48.396;10.008;2024-03-25T02:06:02;95455.94;;;5.61;67.24
8253;BME280;61313;48.396;10.008;2024-03-25T02:08:29;95460.41;;;5.80;66.30
8253;BME280;61313;48.396;10.008;2024-03-25T02:10:56;95455.34;;;5.77;66.54
8253;BME280;61313;48.396;10.008;2024-03-25T02:13:23;95453.44;;;5.80;66.16
8253;BME280;61313;48.396;10.008;2024-03-25T02:15:49;95458.97;;;5.72;66.84
8253;BME280;61313;48.396;10.008;2024-03-25T02:18:17;95464.28;;;5.69;67.26
8253;BME280;61313;48.396;10.008;2024-03-25T02:20:43;95460.09;;;5.65;67.26
8253;BME280;61313;48.396;10.008;2024-03-25T02:23:08;95448.38;;;5.55;67.78
8253;BME280;61313;48.396;10.008;2024-03-25T02:25:38;95461.19;;;5.60;67.35
8253;BME280;61313;48.396;10.008;2024-03-25T02:28:03;95464.09;;;5.52;67.73
8253;BME280;61313;48.396;10.008;2024-03-25T02:30:29;95459.25;;;5.43;68.10
8253;BME280;61313;48.396;10.008;2024-03-25T02:32:54;95462.31;;;5.52;67.62
8253;BME280;61313;48.396;10.008;2024-03-25T02:35:21;95467.47;;;5.54;67.84
8253;BME280;61313;48.396;10.008;2024-03-25T02:37:47;95467.78;;;5.46;67.67
8253;BME280;61313;48.396;10.008;2024-03-25T02:40:15;95467.78;;;5.46;68.16
8253;BME280;61313;48.396;10.008;2024-03-25T02:42:41;95467.22;;;5.38;67.86
8253;BME280;61313;48.396;10.008;2024-03-25T02:45:07;95466.81;;;5.49;68.24
8253;BME280;61313;48.396;10.008;2024-03-25T02:47:32;95471.53;;;5.61;67.65
8253;BME280;61313;48.396;10.008;2024-03-25T02:49:57;95479.34;;;5.61;67.53
8253;BME280;61313;48.396;10.008;2024-03-25T02:52:23;95476.50;;;5.45;68.06
8253;BME280;61313;48.396;10.008;2024-03-25T02:54:48;95480.13;;;5.41;68.28
8253;BME280;61313;48.396;10.008;2024-03-25T02:57:14;95467.19;;;5.40;68.39
8253;BME280;61313;48.396;10.008;2024-03-25T02:59:39;95471.19;;;5.48;68.00
8253;BME280;61313;48.396;10.008;2024-03-25T03:02:04;95468.50;;;5.50;67.73
8253;BME280;61313;48.396;10.008;2024-03-25T03:04:30;95474.44;;;5.54;68.31
8253;BME280;61313;48.396;10.008;2024-03-25T03:06:56;95472.88;;;5.49;68.31
8253;BME280;61313;48.396;10.008;2024-03-25T03:09:22;95469.59;;;5.44;68.50
8253;BME280;61313;48.396;10.008;2024-03-25T03:11:47;95476.88;;;5.58;68.21
8253;BME280;61313;48.396;10.008;2024-03-25T03:14:12;95475.16;;;5.57;68.13
8253;BME280;61313;48.396;10.008;2024-03-25T03:16:38;95472.91;;;5.48;68.18
8253;BME280;61313;48.396;10.008;2024-03-25T03:19:03;95475.91;;;5.61;67.88
8253;BME280;61313;48.396;10.008;2024-03-25T03:21:28;95476.09;;;5.56;68.30
8253;BME280;61313;48.396;10.008;2024-03-25T03:23:55;95479.16;;;5.44;68.25
8253;BME280;61313;48.396;10.008;2024-03-25T03:26:20;95464.16;;;5.50;67.80
8253;BME280;61313;48.396;10.008;2024-03-25T03:28:46;95469.47;;;5.47;68.56
8253;BME280;61313;48.396;10.008;2024-03-25T03:31:11;95465.81;;;5.53;67.78
8253;BME280;61313;48.396;10.008;2024-03-25T03:33:37;95462.16;;;5.35;68.23
8253;BME280;61313;48.396;10.008;2024-03-25T03:36:02;95463.13;;;5.33;68.12
8253;BME280;61313;48.396;10.008;2024-03-25T03:38:27;95466.69;;;5.30;68.12
8253;BME280;61313;48.396;10.008;2024-03-25T03:41:11;95466.81;;;5.27;68.63
8253;BME280;61313;48.396;10.008;2024-03-25T03:43:37;95472.84;;;5.27;68.58
8253;BME280;61313;48.396;10.008;2024-03-25T03:46:03;95455.78;;;5.20;69.48
8253;BME280;61313;48.396;10.008;2024-03-25T03:48:29;95464.47;;;5.19;68.86
8253;BME280;61313;48.396;10.008;2024-03-25T03:50:55;95455.44;;;5.29;68.77
8253;BME280;61313;48.396;10.008;2024-03-25T03:53:20;95468.63;;;5.25;68.32
8253;BME280;61313;48.396;10.008;2024-03-25T03:55:55;95462.19;;;5.34;68.14
8253;BME280;61313;48.396;10.008;2024-03-25T03:58:21;95461.97;;;5.40;67.77
8253;BME280;61313;48.396;10.008;2024-03-25T04:00:47;95464.03;;;5.32;68.41
8253;BME280;61313;48.396;10.008;2024-03-25T04:03:13;95459.44;;;5.15;68.89
8253;BME280;61313;48.396;10.008;2024-03-25T04:05:38;95462.44;;;5.27;68.37
8253;BME280;61313;48.396;10.008;2024-03-25T04:08:04;95459.28;;;5.19;68.52
8253;BME280;61313;48.396;10.008;2024-03-25T04:10:29;95461.09;;;5.17;68.61
8253;BME280;61313;48.396;10.008;2024-03-25T04:12:55;95457.28;;;5.26;68.33
8253;BME280;61313;48.396;10.008;2024-03-25T04:15:22;95459.78;;;5.05;68.87
8253;BME280;61313;48.396;10.008;2024-03-25T04:17:48;95444.75;;;5.14;68.40
8253;BME280;61313;48.396;10.008;2024-03-25T04:20:15;95458.31;;;4.98;68.92
8253;BME280;61313;48.396;10.008;2024-03-25T04:22:44;95460.09;;;4.98;68.72
8253;BME280;61313;48.396;10.008;2024-03-25T04:25:10;95465.28;;;4.98;68.61
8253;BME280;61313;48.396;10.008;2024-03-25T04:27:44;95462.13;;;4.90;68.44
8253;BME280;61313;48.396;10.008;2024-03-25T04:30:10;95462.59;;;5.01;67.90
8253;BME280;61313;48.396;10.008;2024-03-25T04:32:40;95456.69;;;4.72;69.46
8253;BME280;61313;48.396;10.008;2024-03-25T04:35:06;95461.00;;;4.73;69.49
8253;BME280;61313;48.396;10.008;2024-03-25T04:37:33;95467.53;;;4.83;69.42
8253;BME280;61313;48.396;10.008;2024-03-25T04:39:58;95469.34;;;4.81;68.73
8253;BME280;61313;48.396;10.008;2024-03-25T04:42:24;95473.75;;;5.03;67.99
8253;BME280;61313;48.396;10.008;2024-03-25T04:44:49;95470.09;;;5.08;68.17
8253;BME280;61313;48.396;10.008;2024-03-25T04:47:16;95470.81;;;4.88;68.30
8253;BME280;61313;48.396;10.008;2024-03-25T04:49:41;95462.66;;;4.74;69.37
8253;BME280;61313;48.396;10.008;2024-03-25T04:52:07;95459.81;;;4.82;69.39
8253;BME280;61313;48.396;10.008;2024-03-25T04:54:32;95462.50;;;4.79;69.63
8253;BME280;61313;48.396;10.008;2024-03-25T04:56:58;95462.91;;;4.68;69.82
8253;BME280;61313;48.396;10.008;2024-03-25T04:59:23;95472.56;;;4.88;69.06
8253;BME280;61313;48.396;10.008;2024-03-25T05:01:49;95474.81;;;4.74;69.38
8253;BME280;61313;48.396;10.008;2024-03-25T05:04:14;95477.44;;;4.74;69.51
8253;BME280;61313;48.396;10.008;2024-03-25T05:06:39;95482.94;;;4.64;69.62
8253;BME280;61313;48.396;10.008;2024-03-25T05:09:05;95476.50;;;4.75;69.32
8253;BME280;61313;48.396;10.008;2024-03-25T05:11:33;95474.09;;;4.70;69.24
8253;BME280;61313;48.396;10.008;2024-03-25T05:13:59;95482.56;;;4.75;69.47
8253;BME280;61313;48.396;10.008;2024-03-25T05:16:24;95486.09;;;4.98;68.05
8253;BME280;61313;48.396;10.008;2024-03-25T05:18:49;95486.13;;;4.73;68.97
8253;BME280;61313;48.396;10.008;2024-03-25T05:21:15;95493.38;;;4.63;69.48
8253;BME280;61313;48.396;10.008;2024-03-25T05:23:41;95488.16;;;4.64;69.49
8253;BME280;61313;48.396;10.008;2024-03-25T05:26:06;95490.13;;;4.81;68.77
8253;BME280;61313;48.396;10.008;2024-03-25T05:28:31;95489.25;;;4.82;68.95
8253;BME280;61313;48.396;10.008;2024-03-25T05:31:05;95493.03;;;4.97;68.77
8253;BME280;61313;48.396;10.008;2024-03-25T05:33:31;95491.22;;;4.76;69.29
8253;BME280;61313;48.396;10.008;2024-03-25T05:35:57;95492.97;;;4.75;69.02
8253;BME280;61313;48.396;10.008;2024-03-25T05:38:22;95492.97;;;4.75;69.19
8253;BME280;61313;48.396;10.008;2024-03-25T05:40:47;95490.78;;;4.88;68.33
8253;BME280;61313;48.396;10.008;2024-03-25T05:43:13;95487.53;;;4.81;68.92
8253;BME280;61313;48.396;10.008;2024-03-25T05:45:38;95490.13;;;4.81;68.83
8253;BME280;61313;48.396;10.008;2024-03-25T05:48:04;95498.28;;;4.96;68.45
8253;BME280;61313;48.396;10.008;2024-03-25T05:50:29;95486.56;;;4.84;68.38
8253;BME280;61313;48.396;10.008;2024-03-25T05:52:55;95498.19;;;4.99;68.63
8253;BME280;61313;48.396;10.008;2024-03-25T05:55:20;95485.28;;;4.96;68.64
8253;BME280;61313;48.396;10.008;2024-03-25T05:57:45;95494.81;;;4.97;68.24
8253;BME280;61313;48.396;10.008;2024-03-25T06:00:11;95495.75;;;4.94;68.87
8253;BME280;61313;48.396;10.008;2024-03-25T06:02:38;95496.59;;;4.95;68.77
8253;BME280;61313;48.396;10.008;2024-03-25T06:05:04;95498.69;;;5.08;68.35
8253;BME280;61313;48.396;10.008;2024-03-25T06:07:30;95496.28;;;5.04;68.64
8253;BME280;61313;48.396;10.008;2024-03-25T06:09:55;95487.66;;;5.02;68.47
8253;BME280;61313;48.396;10.008;2024-03-25T06:12:21;95494.47;;;5.29;67.08
8253;BME280;61313;48.396;10.008;2024-03-25T06:14:46;95493.38;;;5.12;67.74
8253;BME280;61313;48.396;10.008;2024-03-25T06:17:11;95496.09;;;5.32;67.13
8253;BME280;61313;48.396;10.008;2024-03-25T06:19:37;95496.09;;;5.32;66.91
8253;BME280;61313;48.396;10.008;2024-03-25T06:22:02;95498.88;;;5.49;66.62
8253;BME280;61313;48.396;10.008;2024-03-25T06:24:27;95489.16;;;5.55;66.34
8253;BME280;61313;48.396;10.008;2024-03-25T06:26:53;95490.69;;;5.60;66.15
8253;BME280;61313;48.396;10.008;2024-03-25T06:29:18;95480.38;;;5.79;64.47
8253;BME280;61313;48.396;10.008;2024-03-25T06:31:44;95478.59;;;6.85;61.56
8253;BME280;61313;48.396;10.008;2024-03-25T06:34:28;95476.00;;;7.80;58.01
8253;BME280;61313;48.396;10.008;2024-03-25T06:36:53;95485.06;;;7.54;58.99
8253;BME280;61313;48.396;10.008;2024-03-25T06:39:19;95487.00;;;7.11;59.31
8253;BME280;61313;48.396;10.008;2024-03-25T06:41:44;95501.34;;;6.82;61.09
8253;BME280;61313;48.396;10.008;2024-03-25T06:44:09;95496.81;;;7.06;60.95
8253;BME280;61313;48.396;10.008;2024-03-25T06:46:35;95492.69;;;7.95;57.59
8253;BME280;61313;48.396;10.008;2024-03-25T06:49:00;95481.44;;;9.48;53.16
8253;BME280;61313;48.396;10.008;2024-03-25T06:51:26;95485.06;;;10.09;51.04
8253;BME280;61313;48.396;10.008;2024-03-25T06:53:51;95484.81;;;9.01;53.16
8253;BME280;61313;48.396;10.008;2024-03-25T06:56:17;95486.81;;;8.09;56.62
8253;BME280;61313;48.396;10.008;2024-03-25T06:58:42;95485.81;;;8.11;55.94
8253;BME280;61313;48.396;10.008;2024-03-25T07:01:09;95488.16;;;8.52;55.16
8253;BME280;61313;48.396;10.008;2024-03-25T07:03:35;95492.41;;;8.01;56.27
8253;BME280;61313;48.396;10.008;2024-03-25T07:06:01;95494.84;;;7.49;58.18
8253;BME280;61313;48.396;10.008;2024-03-25T07:08:27;95495.13;;;7.80;56.63
8253;BME280;61313;48.396;10.008;2024-03-25T07:10:53;95489.19;;;8.31;55.61
8253;BME280;61313;48.396;10.008;2024-03-25T07:13:19;95485.47;;;9.04;54.12
8253;BME280;61313;48.396;10.008;2024-03-25T07:15:44;95484.88;;;9.48;52.68
8253;BME280;61313;48.396;10.008;2024-03-25T07:18:10;95486.72;;;9.94;51.25
8253;BME280;61313;48.396;10.008;2024-03-25T07:20:38;95495.03;;;9.54;51.69
8253;BME280;61313;48.396;10.008;2024-03-25T07:23:03;95491.00;;;9.81;51.92
8253;BME280;61313;48.396;10.008;2024-03-25T07:25:29;95497.88;;;10.29;50.18
8253;BME280;61313;48.396;10.008;2024-03-25T07:27:55;95489.75;;;10.64;49.10
8253;BME280;61313;48.396;10.008;2024-03-25T07:30:20;95493.91;;;10.83;48.52
8253;BME280;61313;48.396;10.008;2024-03-25T07:32:49;95491.69;;;11.19;48.01
8253;BME280;61313;48.396;10.008;2024-03-25T07:35:15;95482.06;;;11.34;46.76
8253;BME280;61313;48.396;10.008;2024-03-25T07:37:45;95480.50;;;11.59;46.72
8253;BME280;61313;48.396;10.008;2024-03-25T07:40:10;95480.41;;;11.75;45.39
8253;BME280;61313;48.396;10.008;2024-03-25T07:42:37;95477.69;;;11.91;45.74
8253;BME280;61313;48.396;10.008;2024-03-25T07:45:03;95477.13;;;12.13;45.25
8253;BME280;61313;48.396;10.008;2024-03-25T07:47:30;95472.03;;;12.24;43.98
8253;BME280;61313;48.396;10.008;2024-03-25T07:49:55;95466.19;;;12.59;43.96
8253;BME280;61313;48.396;10.008;2024-03-25T07:52:20;95462.81;;;12.44;43.08
8253;BME280;61313;48.396;10.008;2024-03-25T07:54:46;95466.19;;;12.19;43.95
8253;BME280;61313;48.396;10.008;2024-03-25T07:57:12;95465.84;;;12.38;44.46
8253;BME280;61313;48.396;10.008;2024-03-25T07:59:37;95467.25;;;12.56;42.69
8253;BME280;61313;48.396;10.008;2024-03-25T08:02:03;95464.75;;;12.80;43.12
8253;BME280;61313;48.396;10.008;2024-03-25T08:04:28;95463.63;;;12.97;42.31
8253;BME280;61313;48.396;10.008;2024-03-25T08:06:54;95450.75;;;12.80;42.38
8253;BME280;61313;48.396;10.008;2024-03-25T08:09:19;95463.09;;;13.05;42.13
8253;BME280;61313;48.396;10.008;2024-03-25T08:11:45;95449.81;;;13.32;42.36
8253;BME280;61313;48.396;10.008;2024-03-25T08:14:10;95447.06;;;13.46;41.23
8253;BME280;61313;48.396;10.008;2024-03-25T08:16:36;95450.41;;;13.98;40.84
8253;BME280;61313;48.396;10.008;2024-03-25T08:19:01;95452.03;;;13.88;41.05
8253;BME280;61313;48.396;10.008;2024-03-25T08:21:27;95451.34;;;13.73;40.73
8253;BME280;61313;48.396;10.008;2024-03-25T08:23:52;95452.69;;;13.79;40.62
8253;BME280;61313;48.396;10.008;2024-03-25T08:26:18;95455.69;;;13.98;39.82
8253;BME280;61313;48.396;10.008;2024-03-25T08:28:43;95452.13;;;12.98;41.88
8253;BME280;61313;48.396;10.008;2024-03-25T08:31:09;95448.91;;;13.70;40.79
8253;BME280;61313;48.396;10.008;2024-03-25T08:33:34;95448.38;;;11.41;45.37
8253;BME280;61313;48.396;10.008;2024-03-25T08:36:00;95453.44;;;12.40;43.89
8253;BME280;61313;48.396;10.008;2024-03-25T08:38:25;95445.41;;;13.32;41.57
8253;BME280;61313;48.396;10.008;2024-03-25T08:40:51;95444.91;;;14.01;40.01
8253;BME280;61313;48.396;10.008;2024-03-25T08:43:17;95450.78;;;13.81;39.96
8253;BME280;61313;48.396;10.008;2024-03-25T08:45:44;95444.81;;;13.66;40.11
8253;BME280;61313;48.396;10.008;2024-03-25T08:48:09;95441.56;;;13.62;39.72
8253;BME280;61313;48.396;10.008;2024-03-25T08:50:34;95436.66;;;13.06;40.64
8253;BME280;61313;48.396;10.008;2024-03-25T08:53:00;95438.69;;;13.65;39.87
8253;BME280;61313;48.396;10.008;2024-03-25T08:55:27;95433.69;;;14.10;38.71
8253;BME280;61313;48.396;10.008;2024-03-25T08:57:52;95429.66;;;14.17;38.86
8253;BME280;61313;48.396;10.008;2024-03-25T09:00:18;95426.28;;;14.15;38.06
8253;BME280;61313;48.396;10.008;2024-03-25T09:02:43;95415.59;;;14.52;37.75
8253;BME280;61313;48.396;10.008;2024-03-25T09:05:09;95415.72;;;14.75;37.31
8253;BME280;61313;48.396;10.008;2024-03-25T09:07:35;95411.09;;;14.30;37.81
8253;BME280;61313;48.396;10.008;2024-03-25T09:10:01;95402.16;;;14.79;36.89
8253;BME280;61313;48.396;10.008;2024-03-25T09:12:45;95400.41;;;13.72;39.66
8253;BME280;61313;48.396;10.008;2024-03-25T09:15:10;95396.72;;;14.34;38.84
8253;BME280;61313;48.396;10.008;2024-03-25T09:17:36;95399.97;;;14.38;38.31
8253;BME280;61313;48.396;10.008;2024-03-25T09:20:02;95399.78;;;14.52;37.27
8253;BME280;61313;48.396;10.008;2024-03-25T09:22:47;95400.72;;;14.16;37.86
8253;BME280;61313;48.396;10.008;2024-03-25T09:25:16;95398.78;;;14.42;37.84
8253;BME280;61313;48.396;10.008;2024-03-25T09:27:48;95395.16;;;14.78;36.98
8253;BME280;61313;48.396;10.008;2024-03-25T09:30:15;95386.06;;;14.82;36.15
8253;BME280;61313;48.396;10.008;2024-03-25T09:32:41;95384.03;;;14.97;35.57
8253;BME280;61313;48.396;10.008;2024-03-25T09:35:08;95385.50;;;15.24;35.63
8253;BME280;61313;48.396;10.008;2024-03-25T09:37:33;95378.28;;;15.03;35.38
8253;BME280;61313;48.396;10.008;2024-03-25T09:39:59;95376.22;;;15.30;35.79
8253;BME280;61313;48.396;10.008;2024-03-25T09:42:48;95386.25;;;13.73;37.30
8253;BME280;61313;48.396;10.008;2024-03-25T09:45:16;95376.16;;;14.51;35.91
8253;BME280;61313;48.396;10.008;2024-03-25T09:47:46;95370.97;;;15.07;35.66
8253;BME280;61313;48.396;10.008;2024-03-25T09:50:15;95360.31;;;15.63;34.70
8253;BME280;61313;48.396;10.008;2024-03-25T09:52:49;95359.44;;;15.31;34.10
8253;BME280;61313;48.396;10.008;2024-03-25T09:55:15;95356.25;;;15.59;34.24
8253;BME280;61313;48.396;10.008;2024-03-25T09:57:42;95353.38;;;15.74;33.89
8253;BME280;61313;48.396;10.008;2024-03-25T10:00:08;95353.88;;;16.00;33.84
8253;BME280;61313;48.396;10.008;2024-03-25T10:02:41;95351.72;;;15.39;33.50
8253;BME280;61313;48.396;10.008;2024-03-25T10:05:07;95342.94;;;15.93;33.70
8253;BME280;61313;48.396;10.008;2024-03-25T10:07:33;95332.75;;;15.88;32.73
8253;BME280;61313;48.396;10.008;2024-03-25T10:10:02;95336.72;;;15.17;31.76
8253;BME280;61313;48.396;10.008;2024-03-25T10:12:28;95332.63;;;15.24;32.67
8253;BME280;61313;48.396;10.008;2024-03-25T10:14:53;95329.06;;;15.02;33.38
8253;BME280;61313;48.396;10.008;2024-03-25T10:17:19;95329.09;;;15.57;31.87
8253;BME280;61313;48.396;10.008;2024-03-25T10:19:44;95316.09;;;15.54;30.05
8253;BME280;61313;48.396;10.008;2024-03-25T10:22:09;95324.66;;;15.35;30.32
8253;BME280;61313;48.396;10.008;2024-03-25T10:24:41;95326.38;;;15.14;30.13
8253;BME280;61313;48.396;10.008;2024-03-25T10:27:11;95324.50;;;15.71;30.72
8253;BME280;61313;48.396;10.008;2024-03-25T10:29:42;95313.25;;;15.90;28.17
8253;BME280;61313;48.396;10.008;2024-03-25T10:32:07;95303.72;;;15.98;28.58
8253;BME280;61313;48.396;10.008;2024-03-25T10:34:33;95303.78;;;16.08;27.73
8253;BME280;61313;48.396;10.008;2024-03-25T10:37:01;95282.06;;;16.25;27.77
8253;BME280;61313;48.396;10.008;2024-03-25T10:39:27;95288.91;;;15.20;28.18
8253;BME280;61313;48.396;10.008;2024-03-25T10:41:56;95280.59;;;14.34;29.05
8253;BME280;61313;48.396;10.008;2024-03-25T10:44:26;95291.13;;;13.16;32.10
8253;BME280;61313;48.396;10.008;2024-03-25T10:47:02;95276.91;;;12.81;30.85
8253;BME280;61313;48.396;10.008;2024-03-25T10:49:34;95282.31;;;13.41;30.23
8253;BME280;61313;48.396;10.008;2024-03-25T10:52:04;95269.63;;;13.70;28.40
8253;BME280;61313;48.396;10.008;2024-03-25T10:54:31;95266.31;;;13.07;28.44
8253;BME280;61313;48.396;10.008;2024-03-25T10:57:00;95262.63;;;12.08;28.97
8253;BME280;61313;48.396;10.008;2024-03-25T10:59:29;95267.16;;;12.32;26.90
8253;BME280;61313;48.396;10.008;2024-03-25T11:01:55;95256.84;;;13.04;28.98
8253;BME280;61313;48.396;10.008;2024-03-25T11:04:22;95250.66;;;12.92;28.45
8253;BME280;61313;48.396;10.008;2024-03-25T11:06:48;95251.59;;;13.52;26.52
8253;BME280;61313;48.396;10.008;2024-03-25T11:09:24;95248.28;;;13.62;28.29
8253;BME280;61313;48.396;10.008;2024-03-25T11:11:54;95244.53;;;13.88;28.64
8253;BME280;61313;48.396;10.008;2024-03-25T11:14:19;95248.63;;;13.92;28.19
8253;BME280;61313;48.396;10.008;2024-03-25T11:16:55;95242.03;;;13.87;28.45
8253;BME280;61313;48.396;10.008;2024-03-25T11:19:24;95238.03;;;14.95;51.27
8253;BME280;61313;48.396;10.008;2024-03-25T11:21:50;95239.03;;;14.60;36.14
8253;BME280;61313;48.396;10.008;2024-03-25T11:24:26;95229.72;;;14.21;36.58
8253;BME280;61313;48.396;10.008;2024-03-25T11:26:53;95233.69;;;14.15;39.64
8253;BME280;61313;48.396;10.008;2024-03-25T11:29:18;95223.81;;;15.19;46.92
8253;BME280;61313;48.396;10.008;2024-03-25T11:31:45;95219.78;;;14.81;26.60
8253;BME280;61313;48.396;10.008;2024-03-25T11:34:10;95223.19;;;14.72;26.06
8253;BME280;61313;48.396;10.008;2024-03-25T11:36:35;95220.31;;;15.18;24.79
8253;BME280;61313;48.396;10.008;2024-03-25T11:39:02;95212.31;;;15.41;24.45
8253;BME280;61313;48.396;10.008;2024-03-25T11:41:39;95207.00;;;15.52;24.70
8253;BME280;61313;48.396;10.008;2024-03-25T11:44:05;95204.53;;;14.17;26.24
8253;BME280;61313;48.396;10.008;2024-03-25T11:46:38;95205.38;;;14.51;26.11
8253;BME280;61313;48.396;10.008;2024-03-25T11:49:06;95184.13;;;14.98;25.78
8253;BME280;61313;48.396;10.008;2024-03-25T11:51:33;95185.84;;;14.65;25.32
8253;BME280;61313;48.396;10.008;2024-03-25T11:53:58;95184.03;;;15.20;25.05
8253;BME280;61313;48.396;10.008;2024-03-25T11:56:25;95184.16;;;14.53;24.92
8253;BME280;61313;48.396;10.008;2024-03-25T11:58:50;95172.09;;;13.81;25.52
8253;BME280;61313;48.396;10.008;2024-03-25T12:01:16;95170.66;;;13.66;25.76
8253;BME280;61313;48.396;10.008;2024-03-25T12:03:41;95167.72;;;14.38;25.40
8253;BME280;61313;48.396;10.008;2024-03-25T12:06:07;95165.66;;;13.96;26.15
8253;BME280;61313;48.396;10.008;2024-03-25T12:08:35;95159.75;;;13.82;26.14
8253;BME280;61313;48.396;10.008;2024-03-25T12:11:10;95165.81;;;12.39;27.49
8253;BME280;61313;48.396;10.008;2024-03-25T12:13:45;95160.78;;;11.85;27.91
8253;BME280;61313;48.396;10.008;2024-03-25T12:16:10;95152.84;;;12.12;28.38
8253;BME280;61313;48.396;10.008;2024-03-25T12:18:36;95145.75;;;12.25;28.51
8253;BME280;61313;48.396;10.008;2024-03-25T12:21:05;95146.00;;;12.83;27.32
8253;BME280;61313;48.396;10.008;2024-03-25T12:23:32;95144.66;;;12.41;27.64
8253;BME280;61313;48.396;10.008;2024-03-25T12:26:02;95138.75;;;12.00;28.81
8253;BME280;61313;48.396;10.008;2024-03-25T12:28:28;95134.00;;;12.55;27.50
8253;BME280;61313;48.396;10.008;2024-03-25T12:30:55;95125.88;;;13.06;27.07
8253;BME280;61313;48.396;10.008;2024-03-25T12:33:23;95116.72;;;12.64;28.27
8253;BME280;61313;48.396;10.008;2024-03-25T12:35:50;95117.06;;;12.46;28.70
8253;BME280;61313;48.396;10.008;2024-03-25T12:38:25;95097.66;;;13.20;27.68
8253;BME280;61313;48.396;10.008;2024-03-25T12:40:51;95100.28;;;12.36;27.99
8253;BME280;61313;48.396;10.008;2024-03-25T12:43:17;95090.56;;;12.74;28.29
8253;BME280;61313;48.396;10.008;2024-03-25T12:45:42;95096.16;;;11.95;29.54
8253;BME280;61313;48.396;10.008;2024-03-25T12:48:09;95088.16;;;11.71;30.38
8253;BME280;61313;48.396;10.008;2024-03-25T12:50:34;95082.69;;;11.61;31.31
8253;BME280;61313;48.396;10.008;2024-03-25T12:53:00;95083.41;;;11.76;30.56
8253;BME280;61313;48.396;10.008;2024-03-25T12:55:26;95072.16;;;12.00;29.89
8253;BME280;61313;48.396;10.008;2024-03-25T12:57:52;95074.94;;;11.60;29.75
8253;BME280;61313;48.396;10.008;2024-03-25T13:00:17;95060.72;;;12.01;29.58
8253;BME280;61313;48.396;10.008;2024-03-25T13:02:43;95050.03;;;12.52;28.79
8253;BME280;61313;48.396;10.008;2024-03-25T13:05:09;95046.19;;;12.32;30.18